Lawton, Michigan
Current Conditions -  °F | °C
As of 5:56 PM on Thursday 20 Nov 2014 (Local Time) from KAZO Reporting Station
Light Snow Light Snow  
Wind Chill:   Ceiling: 2800
Heat Index: 22°   Visibility: 2.5mi
Dew Point: 15°   Wind: 16mph
Humidity: 75%   Direction: 290°WNW
Pressure: 30.06"   Gusts: NA
Location:  42.17°N, 85.85°W
Report Text: KAZO 202256Z 29014KT 2 1/2SM -SN OVC028 M06/M09 A3006 RMK AO2 P0000 T10561094
Loading
Personal Weather Stations






























Interactive Weather Map New forecast layout! Learn more

10-Day Weather Forecast

Advertisements
Track Severe Weather on mobile